createdAt,value
2023-03-11T00:00:47.589Z,70.70
2023-03-11T00:03:18.360Z,71.50
2023-03-11T00:05:47.519Z,72.00
2023-03-11T00:08:19.732Z,72.10
2023-03-11T00:10:53.585Z,72.20
2023-03-11T00:13:21.002Z,71.70
2023-03-11T00:15:51.495Z,71.70
2023-03-11T00:18:18.834Z,71.50
2023-03-11T00:20:46.942Z,71.70
2023-03-11T00:23:15.535Z,71.80
2023-03-11T00:25:45.186Z,71.80
2023-03-11T00:28:12.859Z,72.70
2023-03-11T00:30:42.760Z,71.70
2023-03-11T00:33:14.108Z,71.60
2023-03-11T00:35:42.570Z,71.80
2023-03-11T00:38:16.023Z,71.60
2023-03-11T00:40:44.927Z,71.40
2023-03-11T00:43:12.078Z,71.20
2023-03-11T00:45:39.217Z,71.20
2023-03-11T00:48:08.457Z,71.20
2023-03-11T00:50:37.420Z,71.00
2023-03-11T00:53:05.136Z,70.60
2023-03-11T00:55:34.636Z,70.50
2023-03-11T00:58:07.078Z,70.30
2023-03-11T01:00:54.384Z,70.20
2023-03-11T01:03:21.905Z,69.90
2023-03-11T01:05:49.509Z,69.00
2023-03-11T01:08:16.437Z,67.30
2023-03-11T01:10:43.532Z,67.20
2023-03-11T01:13:10.941Z,66.90
2023-03-11T01:15:38.066Z,67.40
2023-03-11T01:18:06.857Z,66.10
2023-03-11T01:20:35.772Z,66.00
2023-03-11T01:23:02.873Z,65.10
2023-03-11T01:25:30.232Z,64.80
2023-03-11T01:27:59.380Z,65.30
2023-03-11T01:30:28.349Z,64.80
2023-03-11T01:32:57.395Z,65.20
2023-03-11T01:35:27.712Z,66.30
2023-03-11T01:37:54.959Z,67.10
2023-03-11T01:40:41.105Z,67.80
2023-03-11T01:43:46.838Z,68.00
2023-03-11T01:46:37.877Z,68.10
2023-03-11T01:49:09.139Z,68.20
2023-03-11T01:51:41.790Z,67.10
2023-03-11T01:54:15.154Z,67.80
2023-03-11T01:56:43.041Z,67.60
2023-03-11T01:59:14.953Z,68.20
2023-03-11T02:02:10.615Z,69.30
2023-03-11T02:04:40.620Z,68.60
2023-03-11T02:07:09.704Z,68.60
2023-03-11T02:09:36.816Z,68.50
2023-03-11T02:12:04.839Z,69.00
2023-03-11T02:14:32.094Z,69.10
2023-03-11T02:16:59.909Z,69.30
2023-03-11T02:19:51.734Z,69.20
2023-03-11T02:22:18.992Z,69.50
2023-03-11T02:25:10.988Z,69.60
2023-03-11T02:27:42.029Z,69.60
2023-03-11T02:30:13.981Z,69.20
2023-03-11T02:32:47.313Z,69.00
2023-03-11T02:35:16.638Z,68.40
2023-03-11T02:37:53.448Z,68.20
2023-03-11T02:40:24.273Z,67.50
2023-03-11T02:42:58.405Z,66.90
2023-03-11T02:45:27.539Z,66.30
2023-03-11T02:47:57.125Z,66.40
2023-03-11T02:50:25.702Z,66.20
2023-03-11T02:52:52.974Z,65.70
2023-03-11T02:55:22.533Z,66.20
2023-03-11T02:57:50.166Z,65.90
2023-03-11T03:00:18.361Z,65.60
2023-03-11T03:02:57.185Z,65.70
2023-03-11T03:05:25.893Z,64.80
2023-03-11T03:07:53.018Z,64.80
2023-03-11T03:10:22.269Z,65.00
2023-03-11T03:12:49.445Z,64.80
2023-03-11T03:15:16.929Z,65.60
2023-03-11T03:17:46.069Z,64.60
2023-03-11T03:20:14.124Z,64.80
2023-03-11T03:22:45.269Z,65.10
2023-03-11T03:25:15.238Z,65.30
2023-03-11T03:27:42.516Z,65.50
2023-03-11T03:30:11.015Z,65.70
2023-03-11T03:32:39.133Z,65.70
2023-03-11T03:35:09.574Z,65.90
2023-03-11T03:38:01.871Z,65.80
2023-03-11T03:40:29.136Z,65.80
2023-03-11T03:42:58.243Z,66.00
2023-03-11T03:45:25.372Z,66.00
2023-03-11T03:47:53.473Z,65.90
2023-03-11T03:50:22.570Z,65.80
2023-03-11T03:52:51.233Z,65.70
2023-03-11T03:55:18.866Z,66.00
2023-03-11T03:57:45.838Z,66.00
2023-03-11T04:00:15.471Z,66.40
2023-03-11T04:02:44.397Z,66.50
2023-03-11T04:05:21.225Z,66.60
2023-03-11T04:07:48.467Z,66.40
2023-03-11T04:10:15.784Z,66.30
2023-03-11T04:12:43.503Z,66.10
2023-03-11T04:15:10.946Z,66.40
2023-03-11T04:17:39.193Z,66.50
2023-03-11T04:20:08.277Z,66.30
2023-03-11T04:22:36.283Z,66.20
2023-03-11T04:25:04.390Z,66.30
2023-03-11T04:27:32.771Z,66.00
2023-03-11T04:30:00.665Z,65.90
2023-03-11T04:32:27.916Z,65.80
2023-03-11T04:34:55.042Z,65.90
2023-03-11T04:37:22.101Z,66.10
2023-03-11T04:39:53.329Z,66.20
2023-03-11T04:42:20.905Z,66.00
2023-03-11T04:44:48.704Z,66.00
2023-03-11T04:47:16.019Z,66.40
2023-03-11T04:49:43.511Z,66.00
2023-03-11T04:52:11.885Z,66.30
2023-03-11T04:54:38.948Z,66.10
2023-03-11T04:57:06.539Z,66.10
2023-03-11T04:59:34.557Z,66.70
2023-03-11T05:02:01.817Z,66.80
2023-03-11T05:04:29.052Z,67.40
2023-03-11T05:06:56.221Z,67.30
2023-03-11T05:09:25.130Z,67.30
2023-03-11T05:11:52.559Z,66.50
2023-03-11T05:14:20.625Z,66.50
2023-03-11T05:16:48.188Z,66.70
2023-03-11T05:19:34.911Z,66.40
2023-03-11T05:22:08.779Z,66.40
2023-03-11T05:24:37.710Z,65.70
2023-03-11T05:27:05.742Z,65.50
2023-03-11T05:29:34.129Z,65.00
2023-03-11T05:32:01.111Z,64.90
2023-03-11T05:34:28.378Z,64.90
2023-03-11T05:36:55.848Z,64.80
2023-03-11T05:39:24.058Z,64.60
2023-03-11T05:41:51.443Z,64.50
2023-03-11T05:44:18.690Z,64.90
2023-03-11T05:46:45.707Z,63.90
2023-03-11T05:49:12.616Z,64.00
2023-03-11T05:51:40.388Z,63.90
2023-03-11T05:54:14.945Z,64.10
2023-03-11T05:56:45.818Z,64.20
2023-03-11T05:59:16.573Z,64.10
2023-03-11T06:01:46.108Z,63.90
2023-03-11T06:04:13.617Z,63.80
2023-03-11T06:06:41.763Z,63.90
2023-03-11T06:09:16.016Z,63.40
2023-03-11T06:11:44.437Z,63.50
2023-03-11T06:14:14.698Z,63.30
2023-03-11T06:16:43.895Z,63.50
2023-03-11T06:19:12.402Z,63.40
2023-03-11T06:21:43.590Z,63.10
2023-03-11T06:24:10.766Z,63.10
2023-03-11T06:26:38.280Z,63.00
2023-03-11T06:29:12.953Z,62.80
2023-03-11T06:31:41.520Z,62.60
2023-03-11T06:34:12.017Z,62.80
2023-03-11T06:36:39.386Z,62.50
2023-03-11T06:39:06.883Z,62.50
2023-03-11T06:41:35.764Z,62.70
2023-03-11T06:44:04.930Z,62.40
2023-03-11T06:46:32.959Z,62.50
2023-03-11T06:49:00.014Z,62.70
2023-03-11T06:51:28.318Z,62.70
2023-03-11T06:53:55.446Z,62.40
2023-03-11T06:56:23.707Z,62.10
2023-03-11T06:59:04.588Z,62.40
2023-03-11T07:01:33.749Z,62.90
2023-03-11T07:04:03.086Z,62.70
2023-03-11T07:06:30.648Z,62.90
2023-03-11T07:09:25.337Z,62.80
2023-03-11T07:11:52.749Z,62.80
2023-03-11T07:14:26.485Z,63.00
2023-03-11T07:16:56.410Z,62.50
2023-03-11T07:19:29.492Z,62.90
2023-03-11T07:21:56.629Z,63.10
2023-03-11T07:24:23.482Z,63.40
2023-03-11T07:26:50.587Z,63.60
2023-03-11T07:29:17.499Z,63.20
2023-03-11T07:31:44.600Z,62.90
2023-03-11T07:34:12.996Z,62.80
2023-03-11T07:36:42.265Z,62.70
2023-03-11T07:39:15.339Z,63.10
2023-03-11T07:41:42.452Z,63.00
2023-03-11T07:44:13.178Z,62.80
2023-03-11T07:46:41.116Z,62.80
2023-03-11T07:49:08.728Z,62.70
2023-03-11T07:51:38.152Z,63.10
2023-03-11T07:54:05.795Z,62.70
2023-03-11T07:56:35.619Z,62.90
2023-03-11T07:59:04.520Z,62.80
2023-03-11T08:01:41.178Z,63.30
2023-03-11T08:04:14.389Z,63.10
2023-03-11T08:06:45.155Z,63.40
2023-03-11T08:09:12.829Z,63.40
2023-03-11T08:11:40.113Z,64.00
2023-03-11T08:14:07.428Z,64.30
2023-03-11T08:16:34.563Z,64.00
2023-03-11T08:19:01.535Z,64.50
2023-03-11T08:21:31.932Z,64.20
2023-03-11T08:24:01.374Z,63.00
2023-03-11T08:26:29.391Z,63.20
2023-03-11T08:28:57.589Z,63.20
2023-03-11T08:31:28.342Z,63.40
2023-03-11T08:34:00.857Z,62.90
2023-03-11T08:36:28.148Z,62.80
2023-03-11T08:38:55.381Z,62.70
2023-03-11T08:41:22.306Z,62.90
2023-03-11T08:43:52.115Z,62.80
2023-03-11T08:46:32.796Z,62.80
2023-03-11T08:49:01.386Z,63.00
2023-03-11T08:51:31.003Z,62.90
2023-03-11T08:53:58.912Z,62.30
2023-03-11T08:56:26.060Z,62.10
2023-03-11T08:58:53.137Z,61.90
2023-03-11T09:01:20.373Z,62.00
2023-03-11T09:03:47.655Z,62.20
2023-03-11T09:06:16.488Z,62.20
2023-03-11T09:08:45.229Z,61.90
2023-03-11T09:11:13.617Z,62.10
2023-03-11T09:13:42.491Z,62.10
2023-03-11T09:16:17.640Z,62.00
2023-03-11T09:18:44.859Z,61.60
2023-03-11T09:21:12.920Z,61.70
2023-03-11T09:23:42.882Z,61.70
2023-03-11T09:26:11.319Z,61.80
2023-03-11T09:28:38.433Z,61.30
2023-03-11T09:31:05.651Z,61.70
2023-03-11T09:33:37.519Z,61.70
2023-03-11T09:36:05.029Z,61.00
2023-03-11T09:38:31.949Z,61.20
2023-03-11T09:41:57.169Z,60.80
2023-03-11T09:45:12.978Z,61.10
2023-03-11T09:47:51.448Z,60.90
2023-03-11T09:50:43.686Z,60.20
2023-03-11T09:53:43.376Z,59.50
2023-03-11T09:56:14.412Z,59.60
2023-03-11T09:58:50.707Z,59.80
2023-03-11T10:01:45.748Z,59.80
2023-03-11T10:04:40.042Z,59.40
2023-03-11T10:07:17.925Z,59.40
2023-03-11T10:09:57.909Z,59.50
2023-03-11T10:13:16.326Z,58.70
2023-03-11T10:15:54.742Z,59.00
2023-03-11T10:18:49.229Z,58.40
2023-03-11T10:21:39.222Z,58.10
2023-03-11T10:24:54.339Z,58.50
2023-03-11T10:27:32.928Z,58.60
2023-03-11T10:30:25.363Z,58.00
2023-03-11T10:33:04.829Z,58.50
2023-03-11T10:35:41.281Z,59.80
2023-03-11T10:38:22.496Z,58.60
2023-03-11T10:40:54.998Z,58.20
2023-03-11T10:43:47.922Z,59.20
2023-03-11T10:46:26.792Z,58.90
2023-03-11T10:48:54.083Z,58.60
2023-03-11T10:51:23.799Z,58.40
2023-03-11T10:53:55.224Z,58.20
2023-03-11T10:56:40.978Z,58.50
2023-03-11T10:59:33.640Z,58.00
2023-03-11T11:02:29.850Z,58.30
2023-03-11T11:05:35.730Z,59.10
2023-03-11T11:08:17.032Z,58.30
2023-03-11T11:10:56.353Z,58.90
2023-03-11T11:13:31.116Z,60.40
2023-03-11T11:16:20.924Z,58.60
2023-03-11T11:18:55.821Z,58.50
2023-03-11T11:21:42.840Z,58.40
2023-03-11T11:24:29.302Z,58.10
2023-03-11T11:27:23.985Z,57.30
2023-03-11T11:30:19.695Z,57.70
2023-03-11T11:32:46.662Z,58.20
2023-03-11T11:35:16.450Z,58.00
2023-03-11T11:37:51.647Z,59.50
2023-03-11T11:40:30.912Z,57.90
2023-03-11T11:43:06.371Z,58.60
2023-03-11T11:46:05.269Z,58.90
2023-03-11T11:49:25.801Z,58.00
2023-03-11T11:52:18.126Z,57.90
2023-03-11T11:55:22.909Z,58.60
2023-03-11T11:57:51.397Z,57.90
2023-03-11T12:00:36.396Z,58.00
2023-03-11T12:03:49.139Z,57.70
2023-03-11T12:06:34.716Z,57.50
2023-03-11T12:09:30.581Z,57.30
2023-03-11T12:12:25.967Z,56.60
2023-03-11T12:15:16.117Z,57.20
2023-03-11T12:17:47.689Z,57.10
2023-03-11T12:20:33.446Z,57.40
2023-03-11T12:23:36.962Z,56.40
2023-03-11T12:26:22.962Z,56.60
2023-03-11T12:29:07.293Z,56.20
2023-03-11T12:31:39.507Z,56.50
2023-03-11T12:34:17.636Z,56.30
2023-03-11T12:36:47.283Z,57.10
2023-03-11T12:39:24.561Z,57.80
2023-03-11T12:42:16.781Z,56.70
2023-03-11T12:44:45.641Z,56.20
2023-03-11T12:47:12.541Z,55.90
2023-03-11T12:49:48.606Z,56.60
2023-03-11T12:52:24.245Z,56.40
2023-03-11T12:54:56.874Z,53.70
2023-03-11T12:57:59.919Z,53.10
2023-03-11T13:00:44.216Z,52.20
2023-03-11T13:03:39.244Z,50.60
2023-03-11T13:06:26.316Z,50.90
2023-03-11T13:08:56.721Z,53.10
2023-03-11T13:11:33.077Z,52.90
2023-03-11T13:14:16.228Z,53.70
2023-03-11T13:16:45.617Z,53.20
2023-03-11T13:19:34.350Z,53.00
2023-03-11T13:22:24.153Z,53.00
2023-03-11T13:24:51.488Z,53.00
2023-03-11T13:27:34.764Z,53.30
2023-03-11T13:30:19.965Z,53.90
2023-03-11T13:33:14.210Z,54.10
2023-03-11T13:36:01.322Z,54.20
2023-03-11T13:39:06.228Z,54.20
2023-03-11T13:41:36.821Z,55.10
2023-03-11T13:44:26.421Z,55.40
2023-03-11T13:47:03.854Z,56.10
2023-03-11T13:49:51.693Z,56.80
2023-03-11T13:52:30.733Z,57.10
2023-03-11T13:55:18.616Z,57.50
2023-03-11T13:58:22.823Z,56.70
2023-03-11T14:00:53.773Z,57.10
2023-03-11T14:03:24.148Z,55.30
2023-03-11T14:06:00.489Z,55.30
2023-03-11T14:08:33.158Z,54.60
2023-03-11T14:11:10.497Z,54.40
2023-03-11T14:13:50.224Z,55.20
2023-03-11T14:16:35.198Z,54.60
2023-03-11T14:19:16.664Z,54.30
2023-03-11T14:21:48.331Z,56.60
2023-03-11T14:24:23.262Z,55.30
2023-03-11T14:26:55.661Z,56.10
2023-03-11T14:29:37.216Z,56.00
2023-03-11T14:32:32.934Z,55.80
2023-03-11T14:35:00.775Z,56.40
2023-03-11T14:37:38.850Z,56.90
2023-03-11T14:40:25.932Z,56.10
2023-03-11T14:42:56.859Z,56.60
2023-03-11T14:45:26.505Z,56.50
2023-03-11T14:48:05.377Z,56.10
2023-03-11T14:50:38.698Z,56.20
2023-03-11T14:53:30.695Z,56.80
2023-03-11T14:56:13.651Z,56.70
2023-03-11T14:58:49.225Z,57.00
2023-03-11T15:01:24.525Z,57.10
2023-03-11T15:03:58.646Z,56.90
2023-03-11T15:06:33.753Z,57.20
2023-03-11T15:09:12.581Z,56.70
2023-03-11T15:12:06.226Z,56.40
2023-03-11T15:14:37.020Z,57.10
2023-03-11T15:17:41.242Z,56.40
2023-03-11T15:20:31.625Z,56.50
2023-03-11T15:23:02.419Z,57.00
2023-03-11T15:25:36.734Z,57.00
2023-03-11T15:28:25.116Z,56.70
2023-03-11T15:31:22.757Z,56.50
2023-03-11T15:33:54.457Z,56.50
2023-03-11T15:36:43.924Z,57.00
2023-03-11T15:39:23.853Z,57.10
2023-03-11T15:42:01.238Z,57.30
2023-03-11T15:44:53.932Z,57.20
2023-03-11T15:47:22.909Z,57.40
2023-03-11T15:49:50.571Z,57.00
2023-03-11T15:52:19.321Z,57.00
2023-03-11T15:54:55.127Z,57.10
2023-03-11T15:57:28.756Z,57.60
2023-03-11T15:59:58.988Z,57.50
2023-03-11T16:02:31.507Z,57.70
2023-03-11T16:04:59.509Z,58.00
2023-03-11T16:07:39.230Z,58.20
2023-03-11T16:10:11.173Z,58.40
2023-03-11T16:12:38.796Z,58.20
2023-03-11T16:15:07.156Z,58.70
2023-03-11T16:17:48.501Z,58.60
2023-03-11T16:20:16.858Z,58.70
2023-03-11T16:22:43.835Z,59.30
2023-03-11T16:25:28.928Z,59.60
2023-03-11T16:27:56.791Z,60.20
2023-03-11T16:30:26.038Z,60.70
2023-03-11T16:32:53.169Z,60.90
2023-03-11T16:35:20.634Z,61.30
2023-03-11T16:37:48.435Z,61.10
2023-03-11T16:40:20.366Z,61.10
2023-03-11T16:42:47.360Z,61.30
2023-03-11T16:45:17.420Z,61.40
2023-03-11T16:47:44.478Z,61.40
2023-03-11T16:50:12.114Z,61.40
2023-03-11T16:52:39.268Z,61.30
2023-03-11T16:55:07.187Z,61.20
2023-03-11T16:57:34.390Z,61.20
2023-03-11T17:00:01.975Z,61.20
2023-03-11T17:02:29.008Z,61.20
2023-03-11T17:04:56.478Z,61.30
2023-03-11T17:07:24.131Z,61.10
2023-03-11T17:09:52.692Z,61.00
2023-03-11T17:12:19.605Z,62.10
2023-03-11T17:14:46.714Z,61.00
2023-03-11T17:17:13.921Z,61.10
2023-03-11T17:19:40.929Z,61.00
2023-03-11T17:22:07.986Z,61.00
2023-03-11T17:24:35.065Z,60.90
2023-03-11T17:27:02.336Z,60.90
2023-03-11T17:29:29.374Z,61.10
2023-03-11T17:31:56.408Z,61.10
2023-03-11T17:34:23.791Z,61.10
2023-03-11T17:36:51.161Z,61.10
2023-03-11T17:39:18.539Z,61.30
2023-03-11T17:41:45.992Z,61.10
2023-03-11T17:44:12.889Z,61.10
2023-03-11T17:46:40.807Z,61.30
2023-03-11T17:49:13.528Z,61.30
2023-03-11T17:51:40.861Z,61.50
2023-03-11T17:54:07.834Z,61.60
2023-03-11T17:56:34.858Z,61.70
2023-03-11T17:59:01.870Z,61.60
2023-03-11T18:01:30.061Z,61.70
2023-03-11T18:03:57.165Z,61.70
2023-03-11T18:06:24.464Z,61.70
2023-03-11T18:08:51.735Z,61.70
2023-03-11T18:11:22.617Z,61.70
2023-03-11T18:13:50.628Z,61.70
2023-03-11T18:16:28.527Z,61.80
2023-03-11T18:18:56.864Z,61.70
2023-03-11T18:21:29.514Z,61.90
2023-03-11T18:23:59.265Z,61.80
2023-03-11T18:26:28.867Z,61.80
2023-03-11T18:28:57.390Z,61.70
2023-03-11T18:31:26.201Z,61.70
2023-03-11T18:34:01.121Z,61.80
2023-03-11T18:36:32.530Z,62.00
2023-03-11T18:39:01.022Z,62.10
2023-03-11T18:41:32.083Z,62.10
2023-03-11T18:43:59.496Z,62.10
2023-03-11T18:46:31.658Z,62.10
2023-03-11T18:49:01.541Z,62.10
2023-03-11T18:51:31.650Z,62.20
2023-03-11T18:54:00.224Z,62.20
2023-03-11T18:56:27.596Z,62.30
2023-03-11T18:58:56.074Z,62.30
2023-03-11T19:01:23.429Z,62.50
2023-03-11T19:03:57.391Z,63.50
2023-03-11T19:06:26.546Z,62.60
2023-03-11T19:08:54.220Z,62.60
2023-03-11T19:11:23.167Z,62.60
2023-03-11T19:13:51.177Z,62.70
2023-03-11T19:16:22.638Z,62.60
2023-03-11T19:18:51.335Z,62.70
2023-03-11T19:21:18.578Z,62.60
2023-03-11T19:23:46.511Z,62.70
2023-03-11T19:26:13.632Z,62.90
2023-03-11T19:28:40.905Z,62.90
2023-03-11T19:31:08.078Z,63.10
2023-03-11T19:33:35.223Z,63.40
2023-03-11T19:36:05.320Z,63.70
2023-03-11T19:38:33.499Z,63.70
2023-03-11T19:41:04.894Z,63.80
2023-03-11T19:43:32.952Z,63.90
2023-03-11T19:46:00.079Z,64.00
2023-03-11T19:48:27.603Z,64.40
2023-03-11T19:50:55.124Z,64.10
2023-03-11T19:53:23.033Z,64.40
2023-03-11T19:55:56.005Z,64.70
2023-03-11T19:58:26.802Z,64.70
2023-03-11T20:00:56.174Z,64.70
2023-03-11T20:03:23.501Z,64.80
2023-03-11T20:05:54.563Z,64.90
2023-03-11T20:08:23.922Z,64.80
2023-03-11T20:10:53.218Z,65.10
2023-03-11T20:13:21.837Z,65.00
2023-03-11T20:15:49.602Z,65.10
2023-03-11T20:18:18.049Z,65.20
2023-03-11T20:20:45.575Z,65.50
2023-03-11T20:23:13.316Z,65.70
2023-03-11T20:25:41.551Z,65.90
2023-03-11T20:28:09.140Z,66.20
2023-03-11T20:30:38.694Z,66.40
2023-03-11T20:33:06.585Z,66.50
2023-03-11T20:35:34.060Z,66.30
2023-03-11T20:38:02.737Z,66.30
2023-03-11T20:40:30.611Z,66.40
2023-03-11T20:42:57.671Z,66.10
2023-03-11T20:45:24.638Z,66.50
2023-03-11T20:47:53.878Z,66.30
2023-03-11T20:50:22.339Z,66.00
2023-03-11T20:52:50.792Z,66.70
2023-03-11T20:55:18.089Z,65.80
2023-03-11T20:57:45.186Z,65.70
2023-03-11T21:00:13.832Z,65.80
2023-03-11T21:02:43.054Z,65.80
2023-03-11T21:05:12.202Z,65.90
2023-03-11T21:07:40.325Z,65.80
2023-03-11T21:10:11.724Z,65.70
2023-03-11T21:12:38.706Z,65.70
2023-03-11T21:15:07.794Z,65.90
2023-03-11T21:17:35.673Z,65.60
2023-03-11T21:20:05.443Z,65.80
2023-03-11T21:22:33.449Z,65.90
2023-03-11T21:25:00.476Z,66.30
2023-03-11T21:27:27.869Z,66.30
2023-03-11T21:29:56.015Z,66.80
2023-03-11T21:32:24.982Z,67.10
2023-03-11T21:34:59.002Z,67.30
2023-03-11T21:37:28.336Z,67.20
2023-03-11T21:39:55.453Z,67.30
2023-03-11T21:42:22.900Z,67.70
2023-03-11T21:44:51.400Z,67.40
2023-03-11T21:47:19.881Z,67.50
2023-03-11T21:49:47.033Z,67.50
2023-03-11T21:52:14.141Z,67.70
2023-03-11T21:54:41.304Z,68.00
2023-03-11T21:57:08.349Z,68.10
2023-03-11T21:59:35.675Z,68.20
2023-03-11T22:02:03.296Z,68.40
2023-03-11T22:04:32.142Z,68.20
2023-03-11T22:06:59.255Z,69.20
2023-03-11T22:09:26.718Z,69.00
2023-03-11T22:11:56.114Z,68.10
2023-03-11T22:14:24.042Z,68.40
2023-03-11T22:16:51.544Z,68.60
2023-03-11T22:19:18.881Z,68.70
2023-03-11T22:21:45.880Z,69.70
2023-03-11T22:24:12.874Z,68.60
2023-03-11T22:26:40.035Z,68.50
2023-03-11T22:29:08.912Z,68.50
2023-03-11T22:31:36.343Z,68.60
2023-03-11T22:34:03.488Z,68.30
2023-03-11T22:36:30.354Z,68.70
2023-03-11T22:38:57.390Z,69.10
2023-03-11T22:41:24.340Z,69.10
2023-03-11T22:43:51.337Z,69.10
2023-03-11T22:46:18.412Z,69.30
2023-03-11T22:48:45.633Z,69.50
2023-03-11T22:51:13.264Z,69.40
2023-03-11T22:53:40.449Z,69.50
2023-03-11T22:56:13.855Z,69.40
2023-03-11T22:58:41.817Z,69.40
2023-03-11T23:01:09.657Z,69.00
2023-03-11T23:03:38.341Z,69.00
2023-03-11T23:06:08.728Z,69.40
2023-03-11T23:08:36.745Z,69.40
2023-03-11T23:11:07.709Z,69.40
2023-03-11T23:13:35.950Z,69.40
2023-03-11T23:16:07.180Z,69.30
2023-03-11T23:18:35.012Z,69.40
2023-03-11T23:21:02.647Z,69.40
2023-03-11T23:23:29.762Z,69.30
2023-03-11T23:25:56.726Z,69.30
2023-03-11T23:28:23.686Z,69.30
2023-03-11T23:30:50.667Z,69.40
2023-03-11T23:33:17.597Z,69.30
2023-03-11T23:35:45.262Z,69.40
2023-03-11T23:38:12.332Z,69.40
2023-03-11T23:40:41.616Z,69.40
2023-03-11T23:43:08.705Z,69.40
2023-03-11T23:45:35.724Z,69.30
2023-03-11T23:48:02.680Z,69.30
2023-03-11T23:50:29.705Z,69.40
2023-03-11T23:52:56.666Z,69.30
2023-03-11T23:55:23.629Z,69.30
2023-03-11T23:57:50.635Z,69.30
